Time;durP1;ratioP1;P1;durP2;ratioP2;P2;SDS_P1;SDS_P2;PMS_P1;PMS_P2;Temp;Humidity;BMP_temperature;BMP_pressure;BME280_temperature;BME280_humidity;BME280_pressure;Samples;Min_cycle;Max_cycle;Signal;HPM_P1;HPM_P2
2022/02/08 00:02:08;;;;;;;13.80;4.97;;;;;;;;;;5039371;28;20550;-50
2022/02/08 00:04:35;;;;;;;11.73;4.10;;;;;;;;;;5033844;28;20075;-52
2022/02/08 00:07:04;;;;;;;8.45;3.20;;;;;;;;;;5038199;28;20404;-51
2022/02/08 00:09:31;;;;;;;7.18;2.88;;;;;;;;;;5041496;28;20032;-53
2022/02/08 00:11:57;;;;;;;7.97;2.70;;;;;;;;;;5043855;28;20037;-51
2022/02/08 00:14:23;;;;;;;7.38;2.88;;;;;;;;;;5043022;28;20033;-49
2022/02/08 00:16:50;;;;;;;6.35;2.72;;;;;;;;;;5022334;28;20035;-52
2022/02/08 00:19:16;;;;;;;4.90;2.20;;;;;;;;;;5036941;28;20550;-52
2022/02/08 00:21:42;;;;;;;5.60;2.08;;;;;;;;;;5042803;28;20040;-53
2022/02/08 00:24:08;;;;;;;4.97;1.80;;;;;;;;;;5024799;28;20083;-51
2022/02/08 00:26:34;;;;;;;5.00;2.08;;;;;;;;;;5023733;28;20092;-51
2022/02/08 00:29:00;;;;;;;4.72;1.95;;;;;;;;;;5035708;28;20021;-48
2022/02/08 00:31:26;;;;;;;4.88;2.30;;;;;;;;;;5033754;28;20030;-50
2022/02/08 00:33:52;;;;;;;3.92;2.17;;;;;;;;;;5037579;28;20432;-49
2022/02/08 00:36:19;;;;;;;5.60;2.30;;;;;;;;;;5045644;28;20109;-49
2022/02/08 00:38:45;;;;;;;6.57;2.42;;;;;;;;;;5045635;28;20055;-48
2022/02/08 00:41:12;;;;;;;3.65;1.83;;;;;;;;;;5043784;28;20028;-52
2022/02/08 00:43:57;;;;;;;4.22;1.95;;;;;;;;;;5025642;28;20076;-51
2022/02/08 00:46:50;;;;;;;4.10;1.73;;;;;;;;;;5025572;28;20088;-50
2022/02/08 00:49:13;;;;;;;3.35;1.80;;;;;;;;;;5028375;28;20493;-51
2022/02/08 00:51:47;;;;;;;4.68;1.95;;;;;;;;;;5034133;28;20021;-51
2022/02/08 00:54:15;;;;;;;4.47;2.40;;;;;;;;;;5030443;28;20061;-49
2022/02/08 00:56:42;;;;;;;4.47;1.70;;;;;;;;;;5029490;28;20572;-49
2022/02/08 00:59:08;;;;;;;2.80;1.60;;;;;;;;;;5029395;28;20056;-52
2022/02/08 01:01:38;;;;;;;3.95;2.03;;;;;;;;;;5045447;28;20412;-51
2022/02/08 01:04:11;;;;;;;4.22;1.77;;;;;;;;;;5069390;28;20261;-48
2022/02/08 01:06:38;;;;;;;6.30;2.33;;;;;;;;;;5069207;28;20112;-52
2022/02/08 01:09:12;;;;;;;4.80;2.20;;;;;;;;;;5069029;28;20040;-49
2022/02/08 01:11:39;;;;;;;3.83;1.73;;;;;;;;;;5061271;28;20055;-50
2022/02/08 01:14:06;;;;;;;4.32;1.73;;;;;;;;;;5049275;28;20037;-50
2022/02/08 01:16:33;;;;;;;3.25;1.77;;;;;;;;;;5049259;28;20087;-48
2022/02/08 01:19:01;;;;;;;3.45;2.03;;;;;;;;;;5049638;28;20021;-50
2022/02/08 01:21:30;;;;;;;4.65;2.30;;;;;;;;;;5047692;28;20037;-51
2022/02/08 01:23:56;;;;;;;7.00;2.08;;;;;;;;;;5048949;28;20439;-48
2022/02/08 01:26:22;;;;;;;2.40;1.55;;;;;;;;;;5048703;28;20025;-52
2022/02/08 01:28:59;;;;;;;3.33;1.90;;;;;;;;;;5047650;28;20405;-50
2022/02/08 01:31:27;;;;;;;3.53;1.77;;;;;;;;;;5044849;28;20103;-49
2022/02/08 01:38:55;;;;;;;3.60;1.95;;;;;;;;;;5048655;28;20477;-48
2022/02/08 01:44:16;;;;;;;2.53;1.60;;;;;;;;;;5048811;28;20090;-51
2022/02/08 01:49:43;;;;;;;5.90;2.22;;;;;;;;;;5047192;28;20366;-48
2022/02/08 01:52:01;;;;;;;4.70;1.90;;;;;;;;;;5047307;28;20622;-48
2022/02/08 01:54:27;;;;;;;3.83;1.85;;;;;;;;;;5048501;28;20033;-48
2022/02/08 01:56:53;;;;;;;3.38;1.60;;;;;;;;;;5048384;28;20035;-51
2022/02/08 01:59:21;;;;;;;3.13;1.60;;;;;;;;;;5045643;28;20071;-48
2022/02/08 02:01:47;;;;;;;3.60;1.60;;;;;;;;;;5030160;28;20091;-49
2022/02/08 02:04:13;;;;;;;3.63;1.50;;;;;;;;;;5048361;28;20566;-52
2022/02/08 02:06:40;;;;;;;3.10;1.30;;;;;;;;;;5028102;28;20100;-49
2022/02/08 02:09:06;;;;;;;2.50;1.58;;;;;;;;;;5028331;28;20112;-48
2022/02/08 02:11:33;;;;;;;3.78;1.77;;;;;;;;;;5027678;28;20025;-49
2022/02/08 02:13:59;;;;;;;3.17;1.55;;;;;;;;;;5047117;28;20504;-50
2022/02/08 02:16:47;;;;;;;4.18;1.90;;;;;;;;;;5047493;28;20511;-49
2022/02/08 02:19:11;;;;;;;3.00;1.50;;;;;;;;;;5047766;28;20489;-48
2022/02/08 02:21:37;;;;;;;4.78;2.08;;;;;;;;;;5046605;28;20033;-48
2022/02/08 02:24:04;;;;;;;4.15;1.85;;;;;;;;;;5041667;28;20041;-50
2022/02/08 02:26:30;;;;;;;4.55;1.80;;;;;;;;;;5027846;28;20025;-50
2022/02/08 02:28:56;;;;;;;6.05;2.00;;;;;;;;;;5027980;28;20025;-51
2022/02/08 02:31:22;;;;;;;3.95;1.95;;;;;;;;;;5027406;28;20045;-51
2022/02/08 02:33:49;;;;;;;3.70;1.73;;;;;;;;;;5045244;28;20045;-50
2022/02/08 02:36:15;;;;;;;5.60;2.20;;;;;;;;;;5048389;28;20028;-49
2022/02/08 02:38:41;;;;;;;5.22;2.05;;;;;;;;;;5046052;28;20420;-49
2022/02/08 02:41:07;;;;;;;4.47;1.92;;;;;;;;;;5047496;28;20029;-52
2022/02/08 02:43:33;;;;;;;3.80;1.90;;;;;;;;;;5046043;28;20483;-47
2022/02/08 02:46:02;;;;;;;4.55;2.00;;;;;;;;;;5045379;28;20431;-49
2022/02/08 02:48:28;;;;;;;5.50;1.98;;;;;;;;;;5047423;28;20086;-51
2022/02/08 02:50:54;;;;;;;4.75;1.98;;;;;;;;;;5047376;28;20049;-47
2022/02/08 02:53:23;;;;;;;3.53;1.73;;;;;;;;;;5033450;28;20521;-49
2022/02/08 02:55:50;;;;;;;5.13;2.17;;;;;;;;;;5027675;28;20018;-48
2022/02/08 02:58:17;;;;;;;4.50;1.80;;;;;;;;;;5028041;28;20481;-51
2022/02/08 03:01:05;;;;;;;7.53;2.45;;;;;;;;;;5027592;28;20037;-51
2022/02/08 03:03:47;;;;;;;5.43;2.28;;;;;;;;;;5027753;28;20030;-48
2022/02/08 03:19:39;;;;;;;4.88;1.75;;;;;;;;;;5046809;28;20039;-49
2022/02/08 03:22:05;;;;;;;4.22;1.80;;;;;;;;;;5046108;28;20151;-49
2022/02/08 03:24:31;;;;;;;7.65;2.03;;;;;;;;;;5026274;28;20021;-49
2022/02/08 03:26:58;;;;;;;2.47;1.67;;;;;;;;;;5026585;28;20500;-48
2022/02/08 03:29:24;;;;;;;3.20;1.67;;;;;;;;;;5034427;28;20698;-50
2022/02/08 03:31:50;;;;;;;3.33;1.50;;;;;;;;;;5046761;28;20504;-51
2022/02/08 03:34:16;;;;;;;4.18;1.70;;;;;;;;;;5046109;28;20060;-49
2022/02/08 03:36:42;;;;;;;4.28;2.08;;;;;;;;;;5047052;28;20096;-48
2022/02/08 03:39:19;;;;;;;3.63;1.98;;;;;;;;;;5046647;28;20116;-49
2022/02/08 03:41:49;;;;;;;3.10;1.63;;;;;;;;;;5035756;28;20448;-49
2022/02/08 03:44:22;;;;;;;5.97;2.92;;;;;;;;;;5043454;28;20090;-51
2022/02/08 03:46:48;;;;;;;5.22;2.45;;;;;;;;;;5046365;28;20017;-50
2022/02/08 03:49:15;;;;;;;2.85;1.70;;;;;;;;;;5046998;28;20036;-51
2022/02/08 03:51:58;;;;;;;5.15;1.88;;;;;;;;;;5043476;28;20017;-49
2022/02/08 03:54:24;;;;;;;3.42;2.05;;;;;;;;;;5044945;28;20041;-48
2022/02/08 03:56:50;;;;;;;4.43;2.15;;;;;;;;;;5046346;28;20480;-51
2022/02/08 03:59:17;;;;;;;4.28;1.98;;;;;;;;;;5044741;28;20427;-49
2022/02/08 04:05:34;;;;;;;3.63;2.17;;;;;;;;;;5034638;28;20059;-50
2022/02/08 04:07:44;;;;;;;6.57;2.53;;;;;;;;;;5030691;28;20037;-50
2022/02/08 04:10:18;;;;;;;4.10;2.20;;;;;;;;;;5027087;28;20461;-52
2022/02/08 04:32:37;;;;;;;;;;;;;;;;;;5068270;28;20058;-49
2022/02/08 04:40:57;;;;;;;6.40;2.17;;;;;;;;;;5045580;28;20076;-50
2022/02/08 04:43:35;;;;;;;4.20;2.15;;;;;;;;;;5050053;28;20800;-51
2022/02/08 04:48:48;;;;;;;4.63;1.80;;;;;;;;;;5031138;28;20558;-52
2022/02/08 04:51:27;;;;;;;4.50;2.20;;;;;;;;;;5031263;28;20021;-50
2022/02/08 04:56:41;;;;;;;4.97;2.50;;;;;;;;;;5030707;28;20512;-52
2022/02/08 05:42:27;;;;;;;;;;;;;;;;;;5050607;28;20055;-51
2022/02/08 05:45:47;;;;;;;4.03;1.92;;;;;;;;;;5040413;28;19913;-48
2022/02/08 05:47:43;;;;;;;4.32;1.90;;;;;;;;;;5029338;28;20465;-48
2022/02/08 05:53:05;;;;;;;3.63;2.10;;;;;;;;;;5047505;28;20531;-49
2022/02/08 05:55:34;;;;;;;4.35;1.92;;;;;;;;;;5046161;28;20053;-50
2022/02/08 05:58:01;;;;;;;4.72;2.08;;;;;;;;;;5034229;28;20033;-47
2022/02/08 06:00:28;;;;;;;6.97;2.63;;;;;;;;;;5048566;28;20032;-47
2022/02/08 06:02:55;;;;;;;8.90;2.55;;;;;;;;;;5035202;28;20037;-50
2022/02/08 06:05:23;;;;;;;6.10;3.13;;;;;;;;;;5028118;28;20060;-49
2022/02/08 06:07:49;;;;;;;12.82;5.32;;;;;;;;;;5034026;28;20043;-48
2022/02/08 06:10:15;;;;;;;11.05;5.40;;;;;;;;;;5048560;28;20021;-48
2022/02/08 06:12:44;;;;;;;10.77;5.85;;;;;;;;;;5046482;28;20049;-52
2022/02/08 06:15:13;;;;;;;18.27;8.18;;;;;;;;;;5048086;28;20032;-48
2022/02/08 06:17:39;;;;;;;25.73;12.00;;;;;;;;;;5046368;28;20025;-47
2022/02/08 06:20:06;;;;;;;23.90;11.40;;;;;;;;;;5048046;28;20147;-51
2022/02/08 06:22:33;;;;;;;18.10;8.48;;;;;;;;;;5047880;28;20035;-49
2022/02/08 06:24:59;;;;;;;16.42;7.45;;;;;;;;;;5045987;28;20029;-49
2022/02/08 06:27:30;;;;;;;12.13;5.85;;;;;;;;;;5028164;28;20033;-49
2022/02/08 06:29:57;;;;;;;11.38;4.82;;;;;;;;;;5027604;28;20013;-52
2022/02/08 06:32:23;;;;;;;8.82;3.90;;;;;;;;;;5027074;28;20385;-51
2022/02/08 06:34:49;;;;;;;7.65;4.18;;;;;;;;;;5028527;28;20029;-49
2022/02/08 06:37:18;;;;;;;7.43;3.28;;;;;;;;;;5029308;28;20036;-50
2022/02/08 06:39:44;;;;;;;7.55;3.67;;;;;;;;;;5027714;28;20024;-51
2022/02/08 06:42:11;;;;;;;9.68;4.25;;;;;;;;;;5044753;28;20603;-52
2022/02/08 06:44:37;;;;;;;11.90;5.50;;;;;;;;;;5047036;28;20036;-51
2022/02/08 06:47:04;;;;;;;13.25;6.75;;;;;;;;;;5029256;28;20029;-49
2022/02/08 06:49:30;;;;;;;12.55;6.85;;;;;;;;;;5036505;28;20450;-50
2022/02/08 06:51:56;;;;;;;13.73;6.93;;;;;;;;;;5027124;28;20040;-49
2022/02/08 06:54:22;;;;;;;13.20;6.93;;;;;;;;;;5039221;28;20075;-48
2022/02/08 06:56:48;;;;;;;13.02;6.82;;;;;;;;;;5047670;28;20142;-50
2022/02/08 06:59:17;;;;;;;12.93;5.82;;;;;;;;;;5047029;28;20043;-49
2022/02/08 07:01:44;;;;;;;7.72;4.47;;;;;;;;;;5042775;28;20712;-49
2022/02/08 07:04:14;;;;;;;9.43;4.50;;;;;;;;;;5038734;28;20640;-51
2022/02/08 07:06:41;;;;;;;7.63;3.83;;;;;;;;;;5033707;28;20064;-51
2022/02/08 07:09:07;;;;;;;9.20;3.85;;;;;;;;;;5040790;28;20036;-52
2022/02/08 07:11:33;;;;;;;7.80;3.50;;;;;;;;;;5046578;28;20032;-50
2022/02/08 07:14:00;;;;;;;7.68;2.92;;;;;;;;;;5046854;28;20108;-50
2022/02/08 07:16:26;;;;;;;4.95;2.78;;;;;;;;;;5044011;28;20125;-52
2022/02/08 07:18:52;;;;;;;4.70;2.70;;;;;;;;;;5026299;28;20108;-48
2022/02/08 07:21:18;;;;;;;5.18;2.55;;;;;;;;;;5027220;28;20164;-50
2022/02/08 07:23:45;;;;;;;6.60;2.58;;;;;;;;;;5032823;28;20041;-49
2022/02/08 07:26:12;;;;;;;6.72;2.90;;;;;;;;;;5044859;28;20033;-52
2022/02/08 07:28:41;;;;;;;5.07;2.83;;;;;;;;;;5038080;28;20519;-51
2022/02/08 07:31:14;;;;;;;6.05;2.70;;;;;;;;;;5039480;28;20454;-51
2022/02/08 07:33:47;;;;;;;6.15;2.65;;;;;;;;;;5036699;28;20034;-48
2022/02/08 07:38:43;;;;;;;4.63;2.60;;;;;;;;;;5045750;28;20071;-49
2022/02/08 07:43:37;;;;;;;6.00;3.20;;;;;;;;;;5033743;28;20037;-50
2022/02/08 07:46:03;;;;;;;9.52;3.90;;;;;;;;;;5045994;28;20029;-52
2022/02/08 07:48:29;;;;;;;11.77;5.57;;;;;;;;;;5042355;28;20036;-48
2022/02/08 07:50:56;;;;;;;11.90;5.65;;;;;;;;;;5043530;28;20401;-49
2022/02/08 07:53:26;;;;;;;13.50;6.32;;;;;;;;;;5033246;28;20033;-48
2022/02/08 07:55:52;;;;;;;18.42;8.35;;;;;;;;;;5026119;28;20200;-50
2022/02/08 07:58:19;;;;;;;15.65;8.48;;;;;;;;;;5025776;28;20552;-49
2022/02/08 08:00:45;;;;;;;14.77;8.68;;;;;;;;;;5026201;28;20030;-49
2022/02/08 08:03:14;;;;;;;15.45;8.05;;;;;;;;;;5024217;28;20021;-50
2022/02/08 08:05:40;;;;;;;12.38;7.18;;;;;;;;;;5025482;28;20567;-48
2022/02/08 08:08:09;;;;;;;10.82;6.03;;;;;;;;;;5043328;28;20025;-50
2022/02/08 08:10:35;;;;;;;12.20;6.88;;;;;;;;;;5045391;28;20536;-48
2022/02/08 08:13:03;;;;;;;10.70;5.35;;;;;;;;;;5045440;28;20059;-50
2022/02/08 08:18:02;;;;;;;9.95;5.45;;;;;;;;;;5037394;28;20040;-49
2022/02/08 08:20:28;;;;;;;8.93;5.13;;;;;;;;;;5043589;28;20024;-52
2022/02/08 08:22:54;;;;;;;10.02;4.72;;;;;;;;;;5044620;28;20032;-49
2022/02/08 08:25:20;;;;;;;9.02;4.50;;;;;;;;;;5046082;28;20033;-48
2022/02/08 08:27:47;;;;;;;10.10;4.80;;;;;;;;;;5045355;28;20021;-48
2022/02/08 08:30:13;;;;;;;8.35;4.35;;;;;;;;;;5029465;28;20025;-49
2022/02/08 08:32:42;;;;;;;9.00;4.43;;;;;;;;;;5032456;28;20062;-51
2022/02/08 08:35:09;;;;;;;10.38;5.38;;;;;;;;;;5039036;28;20040;-50
2022/02/08 08:37:40;;;;;;;11.18;5.45;;;;;;;;;;5030716;28;20079;-50
2022/02/08 08:40:17;;;;;;;10.15;5.47;;;;;;;;;;5038998;28;20047;-49
2022/02/08 08:43:28;;;;;;;12.75;5.50;;;;;;;;;;5041924;28;20108;-51
2022/02/08 08:53:23;;;;;;;11.50;4.65;;;;;;;;;;5045790;28;20056;-51
2022/02/08 08:55:49;;;;;;;6.85;3.53;;;;;;;;;;5030485;28;20018;-48
2022/02/08 08:58:16;;;;;;;7.45;3.38;;;;;;;;;;5035312;28;20126;-50
2022/02/08 09:00:43;;;;;;;5.70;2.72;;;;;;;;;;5046244;28;20104;-47
2022/02/08 09:03:09;;;;;;;7.90;2.97;;;;;;;;;;5046559;28;20051;-49
2022/02/08 09:05:35;;;;;;;5.53;2.90;;;;;;;;;;5044676;28;20406;-47
2022/02/08 09:08:01;;;;;;;3.88;2.58;;;;;;;;;;5030923;28;20100;-47
2022/02/08 09:10:36;;;;;;;4.88;2.63;;;;;;;;;;5029161;28;20040;-50
2022/02/08 09:15:53;;;;;;;5.43;2.33;;;;;;;;;;5035572;28;20056;-51
2022/02/08 09:26:08;;;;;;;4.13;2.00;;;;;;;;;;5049696;28;20067;-50
2022/02/08 09:31:03;;;;;;;9.13;4.30;;;;;;;;;;5049657;28;20029;-50
2022/02/08 09:33:31;;;;;;;7.43;3.92;;;;;;;;;;5040780;28;20033;-49
2022/02/08 09:35:58;;;;;;;6.70;3.40;;;;;;;;;;5038586;28;20021;-51
2022/02/08 09:38:29;;;;;;;7.07;3.58;;;;;;;;;;5036213;28;20029;-49
2022/02/08 09:41:02;;;;;;;8.95;3.53;;;;;;;;;;5028062;28;20044;-52
2022/02/08 09:43:29;;;;;;;6.03;2.97;;;;;;;;;;5032704;28;20029;-48
2022/02/08 09:45:59;;;;;;;5.97;3.10;;;;;;;;;;5048087;28;20104;-48
2022/02/08 09:48:40;;;;;;;5.22;2.42;;;;;;;;;;5048001;28;20419;-49
2022/02/08 09:51:06;;;;;;;6.20;2.53;;;;;;;;;;5036002;28;20025;-49
2022/02/08 09:53:35;;;;;;;4.65;2.47;;;;;;;;;;5027836;28;20034;-50
2022/02/08 09:56:01;;;;;;;3.97;2.08;;;;;;;;;;5049791;28;20032;-51
2022/02/08 09:58:28;;;;;;;4.90;2.40;;;;;;;;;;5047748;28;20033;-48
2022/02/08 10:01:13;;;;;;;4.25;2.35;;;;;;;;;;5041351;28;20029;-51
2022/02/08 10:03:52;;;;;;;5.93;2.40;;;;;;;;;;5027728;28;20037;-50
2022/02/08 10:06:18;;;;;;;4.13;1.90;;;;;;;;;;5028271;28;20032;-51
2022/02/08 10:08:44;;;;;;;5.47;2.55;;;;;;;;;;5027730;28;20041;-48
2022/02/08 10:11:26;;;;;;;2.80;1.95;;;;;;;;;;5027633;28;20111;-52
2022/02/08 10:14:00;;;;;;;3.95;2.15;;;;;;;;;;5041069;28;20059;-52
2022/02/08 10:22:10;;;;;;;3.95;2.05;;;;;;;;;;5028998;28;20503;-52
2022/02/08 10:24:37;;;;;;;2.83;1.63;;;;;;;;;;5044175;28;20423;-51
2022/02/08 10:27:17;;;;;;;3.70;1.90;;;;;;;;;;5028200;28;20018;-50
2022/02/08 10:38:05;;;;;;;3.08;1.50;;;;;;;;;;5026384;28;20037;-50
2022/02/08 10:40:35;;;;;;;2.28;1.20;;;;;;;;;;5041184;28;20438;-51
2022/02/08 10:43:05;;;;;;;2.20;1.27;;;;;;;;;;5046389;28;20444;-51
2022/02/08 10:45:32;;;;;;;2.72;1.52;;;;;;;;;;5046167;28;20044;-52
2022/02/08 10:48:01;;;;;;;1.60;1.13;;;;;;;;;;5046456;28;20051;-52
2022/02/08 10:50:29;;;;;;;3.45;1.48;;;;;;;;;;5046440;28;20029;-51
2022/02/08 10:52:57;;;;;;;2.97;1.13;;;;;;;;;;5047159;28;20018;-50
2022/02/08 11:00:41;;;;;;;1.92;1.00;;;;;;;;;;5046109;28;20047;-52
2022/02/08 11:03:32;;;;;;;1.70;1.00;;;;;;;;;;5046737;28;20100;-51
2022/02/08 11:08:51;;;;;;;2.13;1.10;;;;;;;;;;5039796;28;20048;-48
2022/02/08 11:16:56;;;;;;;1.75;1.00;;;;;;;;;;5027568;28;20028;-52
2022/02/08 11:19:39;;;;;;;3.83;1.58;;;;;;;;;;5027368;28;20108;-50
2022/02/08 11:22:23;;;;;;;1.92;1.20;;;;;;;;;;5027403;28;20592;-51
2022/02/08 11:24:52;;;;;;;2.42;1.20;;;;;;;;;;5028173;28;20397;-51
2022/02/08 11:27:20;;;;;;;2.00;1.10;;;;;;;;;;5036848;28;20116;-50
2022/02/08 11:29:57;;;;;;;2.40;1.27;;;;;;;;;;5047671;28;20032;-51
2022/02/08 11:51:07;;;;;;;2.50;1.45;;;;;;;;;;5041438;28;20116;-52
2022/02/08 11:53:44;;;;;;;3.15;1.65;;;;;;;;;;5045387;28;20412;-50
2022/02/08 12:01:34;;;;;;;2.80;1.45;;;;;;;;;;5026590;28;20033;-52
2022/02/08 12:04:19;;;;;;;2.30;1.35;;;;;;;;;;5041623;28;20512;-49
2022/02/08 12:09:21;;;;;;;3.08;1.30;;;;;;;;;;5029274;28;20036;-53
2022/02/08 12:33:56;;;;;;;5.22;2.00;;;;;;;;;;5024793;28;20372;-51
2022/02/08 12:56:00;;;;;;;2.03;1.23;;;;;;;;;;5033083;28;20375;-47
2022/02/08 13:04:04;;;;;;;3.70;1.90;;;;;;;;;;5037784;28;20135;-51
2022/02/08 14:17:11;;;;;;;2.10;1.33;;;;;;;;;;5045746;28;20407;-50
2022/02/08 14:19:38;;;;;;;3.72;1.48;;;;;;;;;;5045272;28;20028;-51
2022/02/08 14:22:31;;;;;;;3.38;2.13;;;;;;;;;;5045407;28;20120;-51
2022/02/08 14:30:24;;;;;;;3.83;2.38;;;;;;;;;;5025310;28;20113;-48
2022/02/08 14:33:02;;;;;;;4.60;2.10;;;;;;;;;;5025493;28;20030;-50
2022/02/08 15:08:29;;;;;;;3.67;1.35;;;;;;;;;;5030240;28;20040;-51
2022/02/08 15:11:03;;;;;;;3.13;1.55;;;;;;;;;;5044483;28;20485;-51
2022/02/08 15:13:30;;;;;;;3.38;1.30;;;;;;;;;;5046539;28;20029;-50
2022/02/08 15:18:31;;;;;;;4.53;1.70;;;;;;;;;;5044974;28;20066;-51
2022/02/08 15:20:58;;;;;;;6.15;1.88;;;;;;;;;;5044842;28;20033;-48
2022/02/08 15:23:24;;;;;;;4.43;1.75;;;;;;;;;;5044859;28;20013;-51
2022/02/08 15:25:53;;;;;;;2.03;1.23;;;;;;;;;;5045125;28;20029;-52
2022/02/08 15:28:22;;;;;;;4.13;1.33;;;;;;;;;;5044915;28;20528;-51
2022/02/08 15:30:48;;;;;;;3.03;1.42;;;;;;;;;;5043562;28;20025;-51
2022/02/08 15:33:14;;;;;;;3.35;1.63;;;;;;;;;;5045517;28;20021;-51
2022/02/08 15:35:40;;;;;;;1.45;1.10;;;;;;;;;;5044712;28;20107;-51
2022/02/08 15:38:07;;;;;;;3.75;1.50;;;;;;;;;;5045452;28;20036;-51
2022/02/08 15:40:33;;;;;;;3.72;1.35;;;;;;;;;;5044581;28;20031;-52
2022/02/08 15:42:59;;;;;;;1.77;1.20;;;;;;;;;;5044906;28;20033;-50
2022/02/08 15:45:31;;;;;;;2.20;1.40;;;;;;;;;;5044815;28;20113;-49
2022/02/08 15:47:59;;;;;;;2.88;1.38;;;;;;;;;;5044719;28;20020;-53
2022/02/08 15:50:46;;;;;;;3.65;1.40;;;;;;;;;;5044350;28;20017;-51
2022/02/08 16:23:12;;;;;;;6.88;2.70;;;;;;;;;;5029821;28;20030;-50
2022/02/08 16:28:20;;;;;;;6.00;2.80;;;;;;;;;;5033686;28;20535;-51
2022/02/08 16:33:43;;;;;;;3.85;2.30;;;;;;;;;;5046886;28;20026;-50
2022/02/08 16:52:50;;;;;;;5.20;2.88;;;;;;;;;;5028745;28;20404;-51
2022/02/08 17:00:24;;;;;;;5.22;2.92;;;;;;;;;;5027655;28;20044;-46
2022/02/08 17:02:56;;;;;;;5.75;2.92;;;;;;;;;;5028066;28;20036;-47
2022/02/08 17:05:22;;;;;;;7.18;3.47;;;;;;;;;;5027910;28;20036;-48
2022/02/08 17:07:48;;;;;;;9.00;5.43;;;;;;;;;;5027534;28;20038;-49
2022/02/08 17:46:14;;;;;;;16.08;7.43;;;;;;;;;;5049093;28;20000;-48
2022/02/08 17:48:40;;;;;;;14.45;7.00;;;;;;;;;;5045691;28;20033;-48
2022/02/08 17:51:06;;;;;;;15.40;6.70;;;;;;;;;;5048222;28;20022;-47
2022/02/08 17:53:32;;;;;;;14.65;7.03;;;;;;;;;;5046406;28;20443;-50
2022/02/08 17:55:58;;;;;;;10.85;6.10;;;;;;;;;;5049039;28;20056;-49
2022/02/08 17:58:24;;;;;;;12.93;6.88;;;;;;;;;;5035581;28;20458;-50
2022/02/08 18:00:50;;;;;;;12.65;5.88;;;;;;;;;;5041460;28;20032;-50
2022/02/08 18:03:16;;;;;;;10.85;6.47;;;;;;;;;;5028627;28;20044;-47
2022/02/08 18:05:44;;;;;;;13.02;7.00;;;;;;;;;;5044246;28;20029;-47
2022/02/08 18:08:14;;;;;;;14.75;7.82;;;;;;;;;;5041945;28;20064;-50
2022/02/08 18:10:40;;;;;;;13.02;6.82;;;;;;;;;;5047395;28;20409;-51
2022/02/08 18:13:13;;;;;;;12.25;6.38;;;;;;;;;;5042181;28;20022;-47
2022/02/08 18:15:39;;;;;;;11.70;6.30;;;;;;;;;;5048130;28;20025;-49
2022/02/08 18:18:17;;;;;;;11.23;6.10;;;;;;;;;;5048466;28;20028;-51
2022/02/08 18:20:48;;;;;;;12.57;7.22;;;;;;;;;;5047362;28;20021;-50
2022/02/08 19:11:40;;;;;;;4.55;2.47;;;;;;;;;;5043481;28;20079;-53
2022/02/08 19:19:21;;;;;;;4.57;2.20;;;;;;;;;;5033677;28;20641;-49
2022/02/08 19:21:47;;;;;;;3.15;1.83;;;;;;;;;;5028488;28;20048;-51
2022/02/08 19:24:20;;;;;;;2.70;1.58;;;;;;;;;;5039515;28;20120;-50
2022/02/08 19:26:47;;;;;;;3.63;1.70;;;;;;;;;;5033046;28;20082;-51
2022/02/08 19:29:14;;;;;;;3.90;1.98;;;;;;;;;;5039242;28;20029;-51
2022/02/08 19:31:42;;;;;;;2.40;1.25;;;;;;;;;;5033566;28;20030;-48
2022/02/08 19:34:08;;;;;;;2.72;1.55;;;;;;;;;;5029481;28;20416;-50
2022/02/08 19:36:34;;;;;;;3.58;2.03;;;;;;;;;;5035622;28;20108;-51
2022/02/08 19:39:03;;;;;;;6.95;2.78;;;;;;;;;;5031517;28;20163;-50
2022/02/08 19:41:30;;;;;;;6.03;2.80;;;;;;;;;;5028424;28;20036;-50
2022/02/08 19:43:56;;;;;;;7.75;3.92;;;;;;;;;;5040664;28;20790;-50
2022/02/08 19:46:22;;;;;;;7.47;3.65;;;;;;;;;;5032677;28;20566;-50
2022/02/08 19:48:48;;;;;;;10.18;4.45;;;;;;;;;;5028528;28;20017;-48
2022/02/08 19:51:15;;;;;;;6.78;4.13;;;;;;;;;;5034631;28;20036;-49
2022/02/08 19:53:43;;;;;;;7.50;3.85;;;;;;;;;;5033236;28;20032;-49
2022/02/08 19:58:41;;;;;;;5.90;3.15;;;;;;;;;;5041146;28;20059;-47
2022/02/08 20:01:11;;;;;;;6.18;3.28;;;;;;;;;;5034313;28;20642;-52
2022/02/08 20:03:47;;;;;;;6.20;3.20;;;;;;;;;;5034911;28;20018;-52
2022/02/08 20:06:16;;;;;;;4.88;3.05;;;;;;;;;;5047206;28;20025;-51
2022/02/08 20:08:42;;;;;;;6.65;2.90;;;;;;;;;;5034704;28;20625;-50
2022/02/08 20:11:09;;;;;;;7.60;3.65;;;;;;;;;;5046805;28;20127;-49
2022/02/08 20:13:36;;;;;;;7.50;2.97;;;;;;;;;;5033675;28;20033;-49
2022/02/08 20:16:02;;;;;;;5.93;3.25;;;;;;;;;;5033473;28;21142;-51
2022/02/08 20:18:29;;;;;;;6.20;3.63;;;;;;;;;;5035852;28;20025;-51
2022/02/08 20:20:57;;;;;;;11.27;5.25;;;;;;;;;;5031903;28;20029;-51
2022/02/08 20:23:23;;;;;;;13.77;6.32;;;;;;;;;;5027795;28;20024;-51
2022/02/08 20:25:53;;;;;;;12.35;6.45;;;;;;;;;;5029364;28;20025;-54
2022/02/08 20:28:35;;;;;;;12.02;5.55;;;;;;;;;;5031512;28;20026;-51
2022/02/08 20:31:01;;;;;;;9.77;5.18;;;;;;;;;;5037664;28;20037;-48
2022/02/08 20:33:27;;;;;;;13.85;5.95;;;;;;;;;;5035154;28;20037;-50
2022/02/08 20:35:53;;;;;;;10.60;4.68;;;;;;;;;;5031723;28;20033;-50
2022/02/08 20:38:20;;;;;;;8.13;4.93;;;;;;;;;;5029180;28;20026;-49
2022/02/08 20:40:49;;;;;;;7.40;4.28;;;;;;;;;;5025177;28;20029;-51
2022/02/08 20:43:17;;;;;;;7.28;3.67;;;;;;;;;;5033273;28;20280;-48
2022/02/08 20:45:44;;;;;;;8.40;4.25;;;;;;;;;;5027259;28;20107;-50
2022/02/08 20:48:11;;;;;;;9.43;4.40;;;;;;;;;;5031015;28;20030;-49
2022/02/08 20:50:39;;;;;;;10.55;5.70;;;;;;;;;;5029278;28;20025;-48
2022/02/08 20:53:11;;;;;;;13.50;6.55;;;;;;;;;;5031711;28;20382;-50
2022/02/08 20:55:43;;;;;;;12.00;6.40;;;;;;;;;;5032678;28;20406;-48
2022/02/08 20:58:37;;;;;;;11.18;5.93;;;;;;;;;;5030724;28;20037;-50
2022/02/08 21:01:03;;;;;;;12.00;5.67;;;;;;;;;;5033725;28;20025;-48
2022/02/08 21:03:45;;;;;;;10.75;5.00;;;;;;;;;;5039649;28;20067;-50
2022/02/08 21:06:14;;;;;;;8.18;4.63;;;;;;;;;;5036185;28;20119;-49
2022/02/08 21:08:40;;;;;;;9.02;4.70;;;;;;;;;;5036185;28;20033;-50
2022/02/08 21:11:06;;;;;;;8.00;4.10;;;;;;;;;;5041266;28;20094;-48
2022/02/08 21:13:43;;;;;;;9.02;4.82;;;;;;;;;;5040455;28;20538;-48
2022/02/08 21:16:11;;;;;;;8.93;4.57;;;;;;;;;;5043816;28;20028;-50
2022/02/08 21:18:37;;;;;;;10.68;4.80;;;;;;;;;;5035335;28;20041;-48
2022/02/08 21:21:04;;;;;;;7.38;3.83;;;;;;;;;;5027747;28;20029;-49
2022/02/08 21:23:30;;;;;;;6.78;3.58;;;;;;;;;;5030373;28;20052;-51
2022/02/08 21:25:58;;;;;;;8.73;4.13;;;;;;;;;;5036001;28;20419;-48
2022/02/08 21:47:50;;;;;;;13.73;6.70;;;;;;;;;;5029910;28;19917;-49
2022/02/08 21:49:56;;;;;;;13.65;6.55;;;;;;;;;;5037627;28;20397;-48
2022/02/08 21:52:30;;;;;;;18.25;7.78;;;;;;;;;;5024815;28;20029;-50
2022/02/08 21:54:58;;;;;;;14.43;7.50;;;;;;;;;;5039733;28;20514;-49
2022/02/08 21:57:41;;;;;;;15.00;7.35;;;;;;;;;;5031575;28;20025;-51
2022/02/08 22:00:08;;;;;;;19.15;7.68;;;;;;;;;;5040729;28;20033;-49
2022/02/08 22:02:34;;;;;;;16.08;7.47;;;;;;;;;;5039455;28;20033;-50
2022/02/08 22:05:02;;;;;;;11.75;6.22;;;;;;;;;;5037198;28;20033;-50
2022/02/08 22:07:30;;;;;;;12.88;6.05;;;;;;;;;;5027405;28;20481;-49
2022/02/08 22:10:07;;;;;;;12.57;6.03;;;;;;;;;;5043008;28;20025;-48
2022/02/08 22:20:58;;;;;;;10.90;5.30;;;;;;;;;;5025973;28;20033;-48
2022/02/08 22:23:30;;;;;;;10.48;5.45;;;;;;;;;;5025512;28;20034;-49
2022/02/08 22:33:52;;;;;;;7.80;4.10;;;;;;;;;;5025980;28;20043;-49
2022/02/08 22:36:24;;;;;;;8.05;4.47;;;;;;;;;;5025414;28;20091;-50
2022/02/08 22:38:59;;;;;;;7.05;4.18;;;;;;;;;;5025384;28;20030;-48
2022/02/08 22:41:43;;;;;;;7.95;4.25;;;;;;;;;;5025133;28;20039;-50
2022/02/08 22:44:20;;;;;;;7.60;3.95;;;;;;;;;;5025678;28;20040;-49
2022/02/08 22:46:50;;;;;;;8.00;3.92;;;;;;;;;;5025891;28;20104;-48
2022/02/08 22:49:16;;;;;;;7.32;3.42;;;;;;;;;;5028887;28;20070;-50
2022/02/08 22:51:42;;;;;;;5.78;3.15;;;;;;;;;;5038172;28;20032;-47
2022/02/08 22:54:08;;;;;;;7.30;3.30;;;;;;;;;;5027075;28;20088;-49
2022/02/08 22:56:34;;;;;;;6.10;3.33;;;;;;;;;;5024863;28;20029;-48
2022/02/08 22:59:01;;;;;;;9.18;3.70;;;;;;;;;;5035817;28;20029;-48
2022/02/08 23:01:28;;;;;;;6.75;3.60;;;;;;;;;;5023373;28;20083;-50
2022/02/08 23:03:54;;;;;;;6.43;3.28;;;;;;;;;;5025481;28;20099;-50
2022/02/08 23:06:21;;;;;;;6.88;3.65;;;;;;;;;;5024909;28;20116;-47
2022/02/08 23:08:47;;;;;;;7.03;3.42;;;;;;;;;;5025254;28;20167;-50
2022/02/08 23:14:07;;;;;;;6.72;3.90;;;;;;;;;;5025376;28;20052;-52
2022/02/08 23:38:18;;;;;;;14.43;8.80;;;;;;;;;;5044695;28;20048;-47
2022/02/08 23:40:44;;;;;;;15.88;8.85;;;;;;;;;;5044412;28;20033;-51
2022/02/08 23:43:11;;;;;;;16.90;9.02;;;;;;;;;;5045230;28;20407;-49
2022/02/08 23:45:38;;;;;;;15.90;8.63;;;;;;;;;;5044348;28;20070;-48
2022/02/08 23:48:20;;;;;;;14.23;7.68;;;;;;;;;;5044053;28;20052;-51
2022/02/08 23:53:38;;;;;;;9.73;5.78;;;;;;;;;;5024703;28;20068;-49
2022/02/08 23:56:12;;;;;;;12.45;6.38;;;;;;;;;;5023995;28;20064;-49
2022/02/08 23:58:42;;;;;;;11.88;6.03;;;;;;;;;;5024794;28;20033;-47
